createdAt,value
2022-09-17T00:00:11.306Z,12.02
2022-09-17T00:02:37.551Z,12.30
2022-09-17T00:05:03.920Z,11.15
2022-09-17T00:07:29.679Z,8.23
2022-09-17T00:09:55.475Z,10.52
2022-09-17T00:12:21.244Z,13.80
2022-09-17T00:14:47.265Z,7.90
2022-09-17T00:17:13.031Z,10.52
2022-09-17T00:19:39.032Z,9.70
2022-09-17T00:22:04.818Z,11.15
2022-09-17T00:24:30.679Z,8.32
2022-09-17T00:26:56.453Z,12.75
2022-09-17T00:29:25.209Z,11.82
2022-09-17T00:31:51.130Z,10.82
2022-09-17T00:34:16.977Z,12.48
2022-09-17T00:36:42.775Z,14.02
2022-09-17T00:39:10.521Z,14.95
2022-09-17T00:41:37.755Z,17.63
2022-09-17T00:44:38.519Z,19.50
2022-09-17T00:47:04.764Z,15.52
2022-09-17T00:49:31.900Z,17.08
2022-09-17T00:52:14.895Z,17.33
2022-09-17T00:54:49.052Z,18.58
2022-09-17T00:57:15.883Z,21.85
2022-09-17T00:59:41.780Z,21.25
2022-09-17T01:02:08.252Z,18.80
2022-09-17T01:04:34.093Z,24.77
2022-09-17T01:07:02.837Z,22.83
2022-09-17T01:09:52.778Z,21.35
2022-09-17T01:12:49.045Z,18.45
2022-09-17T01:15:37.228Z,21.15
2022-09-17T01:18:27.517Z,26.48
2022-09-17T01:20:59.044Z,23.38
2022-09-17T01:23:45.817Z,28.58
2022-09-17T01:26:23.706Z,26.48
2022-09-17T01:28:58.626Z,24.05
2022-09-17T01:31:50.707Z,26.25
2022-09-17T01:34:34.004Z,29.05
2022-09-17T01:37:02.887Z,29.65
2022-09-17T01:39:31.518Z,27.63
2022-09-17T01:42:07.256Z,24.48
2022-09-17T01:44:42.101Z,24.27
2022-09-17T01:47:21.066Z,20.85
2022-09-17T01:49:50.894Z,23.77
2022-09-17T01:52:19.157Z,29.25
2022-09-17T01:54:54.951Z,27.75
2022-09-17T01:57:36.237Z,24.38
2022-09-17T02:00:07.777Z,26.25
2022-09-17T02:02:55.593Z,26.65
2022-09-17T02:05:38.979Z,23.77
2022-09-17T02:08:11.087Z,24.98
2022-09-17T02:10:53.135Z,27.85
2022-09-17T02:13:24.133Z,27.98
2022-09-17T02:15:57.126Z,24.48
2022-09-17T02:18:43.199Z,25.88
2022-09-17T02:23:52.154Z,22.27
2022-09-17T02:26:19.821Z,31.50
2022-09-17T02:28:50.873Z,22.38
2022-09-17T02:31:17.166Z,22.50
2022-09-17T02:33:46.603Z,27.17
2022-09-17T02:36:12.435Z,25.90
2022-09-17T02:38:42.816Z,24.45
2022-09-17T02:41:22.368Z,27.75
2022-09-17T02:44:01.362Z,28.08
2022-09-17T02:47:05.418Z,35.65
2022-09-17T02:49:39.981Z,29.75
2022-09-17T02:52:31.217Z,31.85
2022-09-17T02:55:18.219Z,33.95
2022-09-17T02:58:32.880Z,34.88
2022-09-17T03:01:07.113Z,34.92
2022-09-17T03:03:38.717Z,34.53
2022-09-17T03:06:05.078Z,37.30
2022-09-17T03:08:37.405Z,35.08
2022-09-17T03:11:05.439Z,41.47
2022-09-17T03:13:31.467Z,37.80
2022-09-17T03:15:57.592Z,31.77
2022-09-17T03:18:23.437Z,31.17
2022-09-17T03:20:49.491Z,34.30
2022-09-17T03:23:15.637Z,32.38
2022-09-17T03:25:41.453Z,33.08
2022-09-17T03:28:07.199Z,34.88
2022-09-17T03:30:33.081Z,33.45
2022-09-17T03:32:58.892Z,36.50
2022-09-17T03:35:24.692Z,34.67
2022-09-17T03:37:50.462Z,39.20
2022-09-17T03:40:16.552Z,36.05
2022-09-17T03:42:42.687Z,36.55
2022-09-17T03:45:08.848Z,32.97
2022-09-17T03:47:36.503Z,31.48
2022-09-17T03:50:03.461Z,38.17
2022-09-17T03:52:29.258Z,24.45
2022-09-17T03:54:55.047Z,25.67
2022-09-17T03:57:22.071Z,26.73
2022-09-17T03:59:48.542Z,26.08
2022-09-17T04:02:14.365Z,27.85
2022-09-17T04:04:42.827Z,32.15
2022-09-17T04:07:11.755Z,24.15
2022-09-17T04:09:37.685Z,33.38
2022-09-17T04:12:03.772Z,29.08
2022-09-17T04:14:29.629Z,32.03
2022-09-17T04:16:55.371Z,33.80
2022-09-17T04:19:23.405Z,28.52
2022-09-17T04:21:49.183Z,32.75
2022-09-17T04:24:15.060Z,26.02
2022-09-17T04:26:40.872Z,25.60
2022-09-17T04:29:06.762Z,30.92
2022-09-17T04:31:32.609Z,27.98
2022-09-17T04:33:58.624Z,29.88
2022-09-17T04:36:24.583Z,30.67
2022-09-17T04:38:50.944Z,31.08
2022-09-17T04:41:16.748Z,28.13
2022-09-17T04:43:42.622Z,24.15
2022-09-17T04:46:08.563Z,24.55
2022-09-17T04:48:34.462Z,26.55
2022-09-17T04:51:00.296Z,31.15
2022-09-17T04:53:26.217Z,29.27
2022-09-17T04:55:52.322Z,25.25
2022-09-17T04:58:18.179Z,26.50
2022-09-17T05:00:44.046Z,23.90
2022-09-17T05:03:09.891Z,29.63
2022-09-17T05:05:35.709Z,27.60
2022-09-17T05:08:01.780Z,22.20
2022-09-17T05:10:27.642Z,27.55
2022-09-17T05:12:55.177Z,28.33
2022-09-17T05:15:23.239Z,19.85
2022-09-17T05:17:49.456Z,37.20
2022-09-17T05:20:16.360Z,27.98
2022-09-17T05:22:47.033Z,21.95
2022-09-17T05:25:14.210Z,23.42
2022-09-17T05:27:40.299Z,22.27
2022-09-17T05:30:11.172Z,18.75
2022-09-17T05:32:38.272Z,23.08
2022-09-17T05:35:05.942Z,16.58
2022-09-17T05:37:31.987Z,17.33
2022-09-17T05:39:57.825Z,15.88
2022-09-17T05:42:23.586Z,12.55
2022-09-17T05:44:49.402Z,14.20
2022-09-17T05:47:15.230Z,13.75
2022-09-17T05:49:41.069Z,16.33
2022-09-17T05:52:06.979Z,17.73
2022-09-17T05:54:32.782Z,19.13
2022-09-17T05:56:58.611Z,17.45
2022-09-17T05:59:24.397Z,23.27
2022-09-17T06:01:50.302Z,14.65
2022-09-17T06:04:17.231Z,18.60
2022-09-17T06:06:43.279Z,14.43
2022-09-17T06:09:09.892Z,15.95
2022-09-17T06:11:39.520Z,13.77
2022-09-17T06:14:05.335Z,12.75
2022-09-17T06:16:31.214Z,13.85
2022-09-17T06:19:00.043Z,14.43
2022-09-17T06:21:26.975Z,13.05
2022-09-17T06:23:52.772Z,13.25
2022-09-17T06:26:18.720Z,12.27
2022-09-17T06:28:45.162Z,10.38
2022-09-17T06:31:12.602Z,12.10
2022-09-17T06:33:40.833Z,10.80
2022-09-17T06:36:13.707Z,12.43
2022-09-17T06:38:40.732Z,9.85
2022-09-17T06:41:06.570Z,10.65
2022-09-17T06:43:32.412Z,14.35
2022-09-17T06:46:00.408Z,15.40
2022-09-17T06:48:27.650Z,8.25
2022-09-17T06:51:01.040Z,15.30
2022-09-17T06:53:28.906Z,9.60
2022-09-17T06:56:03.568Z,7.85
2022-09-17T06:58:34.377Z,11.60
2022-09-17T07:01:01.252Z,11.18
2022-09-17T07:03:28.851Z,8.15
2022-09-17T07:05:58.143Z,9.25
2022-09-17T07:08:27.003Z,10.40
2022-09-17T07:10:56.951Z,12.27
2022-09-17T07:13:23.731Z,8.65
2022-09-17T07:15:54.739Z,10.10
2022-09-17T07:18:22.059Z,6.95
2022-09-17T07:20:55.820Z,10.52
2022-09-17T07:23:26.178Z,10.27
2022-09-17T07:26:01.534Z,11.13
2022-09-17T07:28:28.086Z,15.18
2022-09-17T07:30:55.057Z,8.82
2022-09-17T07:33:24.817Z,8.48
2022-09-17T07:35:59.145Z,9.48
2022-09-17T07:38:26.062Z,11.00
2022-09-17T07:41:03.010Z,13.98
2022-09-17T07:43:31.385Z,8.75
2022-09-17T07:45:58.882Z,12.35
2022-09-17T07:48:25.346Z,10.57
2022-09-17T07:50:51.326Z,10.52
2022-09-17T07:53:17.570Z,8.25
2022-09-17T07:55:51.620Z,8.50
2022-09-17T07:58:18.016Z,10.48
2022-09-17T08:00:43.906Z,10.75
2022-09-17T08:03:09.756Z,9.80
2022-09-17T08:05:35.552Z,10.15
2022-09-17T08:08:03.125Z,12.80
2022-09-17T08:10:28.882Z,10.07
2022-09-17T08:12:57.103Z,8.60
2022-09-17T08:15:26.041Z,4.82
2022-09-17T08:17:52.295Z,12.82
2022-09-17T08:20:19.354Z,7.43
2022-09-17T08:22:49.365Z,10.93
2022-09-17T08:25:16.233Z,10.63
2022-09-17T08:27:42.038Z,8.63
2022-09-17T08:30:08.499Z,8.60
2022-09-17T08:32:35.105Z,7.65
2022-09-17T08:35:01.237Z,15.30
2022-09-17T08:37:30.662Z,6.70
2022-09-17T08:39:57.653Z,9.77
2022-09-17T08:42:32.185Z,8.25
2022-09-17T08:45:01.951Z,9.25
2022-09-17T08:47:32.869Z,9.85
2022-09-17T08:50:04.806Z,12.18
2022-09-17T08:52:30.597Z,8.35
2022-09-17T08:55:11.028Z,9.25
2022-09-17T08:57:55.810Z,9.23
2022-09-17T09:00:23.592Z,12.55
2022-09-17T09:02:55.943Z,13.30
2022-09-17T09:05:43.350Z,11.25
2022-09-17T09:08:29.663Z,9.52
2022-09-17T09:11:02.108Z,11.80
2022-09-17T09:13:38.505Z,8.00
2022-09-17T09:16:18.116Z,9.93
2022-09-17T09:18:44.359Z,7.43
2022-09-17T09:21:24.855Z,8.27
2022-09-17T09:24:01.404Z,6.22
2022-09-17T09:26:36.037Z,7.63
2022-09-17T09:29:16.861Z,7.20
2022-09-17T09:31:55.568Z,6.05
2022-09-17T09:34:23.131Z,6.88
2022-09-17T09:36:50.831Z,7.00
2022-09-17T09:39:39.380Z,6.70
2022-09-17T09:42:16.416Z,6.07
2022-09-17T09:44:42.354Z,7.22
2022-09-17T09:47:26.576Z,4.82
2022-09-17T09:50:18.066Z,7.82
2022-09-17T09:53:05.918Z,5.63
2022-09-17T09:55:57.824Z,9.32
2022-09-17T09:58:33.366Z,5.65
2022-09-17T10:06:06.915Z,5.28
2022-09-17T10:08:39.035Z,7.32
2022-09-17T10:11:19.256Z,9.27
2022-09-17T10:13:45.995Z,6.75
2022-09-17T10:16:24.742Z,14.18
2022-09-17T10:19:18.249Z,6.63
2022-09-17T10:21:44.030Z,6.20
2022-09-17T10:24:33.794Z,3.42
2022-09-17T10:27:16.162Z,5.47
2022-09-17T10:29:45.245Z,5.53
2022-09-17T10:32:19.867Z,7.20
2022-09-17T10:35:05.633Z,4.50
2022-09-17T10:37:48.205Z,5.35
2022-09-17T10:40:22.923Z,3.70
2022-09-17T10:42:50.681Z,5.50
2022-09-17T10:45:29.767Z,5.75
2022-09-17T10:47:59.065Z,3.08
2022-09-17T10:50:34.998Z,5.78
2022-09-17T10:53:18.010Z,3.60
2022-09-17T10:56:00.854Z,7.07
2022-09-17T10:58:54.703Z,3.65
2022-09-17T11:01:45.165Z,5.03
2022-09-17T11:04:35.879Z,4.20
2022-09-17T11:07:16.783Z,6.75
2022-09-17T11:10:11.831Z,2.55
2022-09-17T11:12:41.360Z,2.50
2022-09-17T11:15:27.605Z,4.75
2022-09-17T11:18:16.199Z,3.50
2022-09-17T11:21:03.303Z,2.97
2022-09-17T11:23:32.103Z,4.18
2022-09-17T11:26:20.979Z,5.72
2022-09-17T11:29:03.396Z,2.85
2022-09-17T11:31:58.449Z,3.67
2022-09-17T11:34:53.440Z,2.85
2022-09-17T11:37:30.714Z,2.00
2022-09-17T11:39:59.879Z,4.05
2022-09-17T11:42:31.678Z,5.22
2022-09-17T11:52:42.138Z,2.53
2022-09-17T11:55:27.408Z,3.15
2022-09-17T11:58:13.688Z,3.00
2022-09-17T12:00:49.437Z,2.47
2022-09-17T12:07:12.518Z,5.72
2022-09-17T12:09:43.469Z,3.63
2022-09-17T12:12:44.942Z,3.03
2022-09-17T12:15:17.312Z,2.95
2022-09-17T12:18:27.841Z,3.30
2022-09-17T12:20:53.839Z,4.82
2022-09-17T12:23:31.608Z,2.90
2022-09-17T12:26:06.558Z,2.25
2022-09-17T12:29:15.813Z,1.50
2022-09-17T12:31:47.213Z,1.90
2022-09-17T12:34:50.639Z,0.93
2022-09-17T12:37:26.239Z,1.48
2022-09-17T12:40:09.196Z,2.50
2022-09-17T12:42:55.300Z,1.35
2022-09-17T12:45:27.192Z,2.25
2022-09-17T12:48:05.187Z,2.38
2022-09-17T12:51:00.233Z,1.67
2022-09-17T12:53:40.599Z,0.95
2022-09-17T12:56:46.379Z,1.98
2022-09-17T12:59:19.574Z,2.20
2022-09-17T13:02:03.992Z,2.53
2022-09-17T13:04:56.898Z,4.40
2022-09-17T13:07:30.346Z,4.57
2022-09-17T13:09:58.803Z,3.47
2022-09-17T13:12:32.174Z,1.52
2022-09-17T13:15:17.811Z,4.72
2022-09-17T13:18:23.810Z,2.45
2022-09-17T13:21:00.710Z,4.65
2022-09-17T13:23:47.914Z,8.95
2022-09-17T13:26:20.287Z,5.57
2022-09-17T13:28:50.863Z,5.07
2022-09-17T13:31:20.758Z,3.65
2022-09-17T13:33:53.974Z,2.75
2022-09-17T13:36:38.584Z,3.80
2022-09-17T13:39:07.117Z,3.08
2022-09-17T13:41:39.695Z,3.47
2022-09-17T13:44:07.664Z,2.65
2022-09-17T13:46:35.926Z,3.25
2022-09-17T13:49:15.924Z,3.63
2022-09-17T13:51:44.615Z,4.10
2022-09-17T13:54:11.364Z,2.95
2022-09-17T13:56:50.627Z,3.08
2022-09-17T13:59:21.064Z,4.45
2022-09-17T14:02:18.116Z,2.47
2022-09-17T14:04:43.872Z,3.10
2022-09-17T14:07:22.933Z,2.05
2022-09-17T14:09:57.820Z,2.38
2022-09-17T14:12:48.037Z,4.32
2022-09-17T14:15:38.940Z,3.67
2022-09-17T14:18:27.802Z,7.43
2022-09-17T14:21:04.960Z,3.60
2022-09-17T14:23:41.282Z,4.35
2022-09-17T14:26:31.833Z,5.85
2022-09-17T14:29:16.382Z,4.35
2022-09-17T14:31:42.280Z,5.32
2022-09-17T14:34:19.380Z,3.88
2022-09-17T14:36:45.292Z,4.93
2022-09-17T14:39:39.602Z,6.18
2022-09-17T14:42:14.517Z,6.10
2022-09-17T14:44:53.640Z,3.92
2022-09-17T14:47:21.144Z,4.93
2022-09-17T14:49:48.146Z,4.65
2022-09-17T14:52:31.265Z,5.68
2022-09-17T14:55:14.949Z,6.78
2022-09-17T14:57:40.790Z,4.65
2022-09-17T15:00:17.742Z,4.03
2022-09-17T15:02:44.206Z,4.28
2022-09-17T15:05:19.252Z,4.15
2022-09-17T15:07:48.426Z,2.88
2022-09-17T15:10:21.744Z,3.95
2022-09-17T15:12:49.608Z,2.25
2022-09-17T15:15:23.514Z,1.70
2022-09-17T15:17:50.573Z,3.80
2022-09-17T15:20:22.594Z,3.83
2022-09-17T15:23:22.934Z,2.55
2022-09-17T15:25:52.462Z,5.38
2022-09-17T15:28:37.991Z,3.80
2022-09-17T15:31:06.113Z,4.93
2022-09-17T15:33:35.668Z,4.10
2022-09-17T15:36:15.176Z,3.10
2022-09-17T15:38:41.855Z,4.30
2022-09-17T15:41:35.769Z,3.20
2022-09-17T15:44:31.821Z,6.03
2022-09-17T15:49:43.039Z,4.07
2022-09-17T15:52:32.302Z,3.00
2022-09-17T15:54:59.294Z,6.13
2022-09-17T15:57:28.651Z,3.97
2022-09-17T15:59:55.273Z,6.32
2022-09-17T16:02:30.463Z,4.35
2022-09-17T16:05:16.083Z,2.92
2022-09-17T16:07:43.688Z,4.88
2022-09-17T16:10:11.158Z,5.05
2022-09-17T16:12:41.472Z,4.25
2022-09-17T16:15:07.949Z,4.30
2022-09-17T16:17:36.477Z,5.22
2022-09-17T16:20:23.775Z,4.95
2022-09-17T16:22:51.109Z,7.97
2022-09-17T16:25:19.396Z,7.03
2022-09-17T16:27:52.968Z,5.93
2022-09-17T16:30:22.197Z,6.45
2022-09-17T16:32:48.643Z,5.10
2022-09-17T16:35:17.645Z,8.27
2022-09-17T16:37:47.171Z,5.22
2022-09-17T16:40:13.183Z,10.10
2022-09-17T16:42:39.074Z,6.15
2022-09-17T16:45:06.509Z,6.72
2022-09-17T16:47:40.067Z,4.55
2022-09-17T16:50:09.226Z,7.28
2022-09-17T16:52:35.741Z,4.90
2022-09-17T16:55:02.432Z,11.18
2022-09-17T16:57:29.967Z,8.10
2022-09-17T16:59:55.812Z,8.45
2022-09-17T17:02:21.690Z,5.25
2022-09-17T17:04:47.488Z,5.25
2022-09-17T17:07:13.611Z,4.50
2022-09-17T17:09:39.440Z,6.03
2022-09-17T17:12:05.519Z,14.07
2022-09-17T17:14:31.438Z,7.93
2022-09-17T17:16:57.237Z,4.82
2022-09-17T17:19:24.517Z,3.30
2022-09-17T17:21:51.016Z,6.07
2022-09-17T17:24:17.243Z,4.43
2022-09-17T17:26:43.020Z,5.15
2022-09-17T17:29:08.898Z,5.57
2022-09-17T17:31:35.232Z,5.15
2022-09-17T17:34:01.325Z,5.15
2022-09-17T17:36:27.416Z,3.83
2022-09-17T17:38:59.914Z,4.80
2022-09-17T17:41:27.525Z,5.78
2022-09-17T17:43:54.410Z,3.97
2022-09-17T17:46:20.764Z,8.82
2022-09-17T17:48:46.696Z,5.32
2022-09-17T17:51:12.509Z,4.10
2022-09-17T17:53:41.802Z,9.38
2022-09-17T17:56:08.793Z,4.13
2022-09-17T17:58:35.608Z,2.65
2022-09-17T18:01:18.999Z,8.05
2022-09-17T18:03:45.460Z,6.70
2022-09-17T18:06:11.349Z,5.50
2022-09-17T18:08:38.982Z,4.97
2022-09-17T18:11:07.448Z,10.13
2022-09-17T18:13:35.467Z,4.85
2022-09-17T18:16:02.650Z,8.40
2022-09-17T18:18:42.166Z,9.55
2022-09-17T18:21:14.356Z,6.68
2022-09-17T18:23:40.793Z,11.00
2022-09-17T18:26:12.104Z,8.65
2022-09-17T18:28:38.285Z,6.22
2022-09-17T18:31:27.429Z,7.72
2022-09-17T18:34:14.609Z,8.00
2022-09-17T18:36:41.122Z,7.00
2022-09-17T18:39:52.852Z,7.07
2022-09-17T18:41:56.437Z,11.10
2022-09-17T18:44:22.330Z,5.43
2022-09-17T18:46:49.403Z,5.93
2022-09-17T18:49:15.510Z,7.78
2022-09-17T18:51:41.341Z,9.50
2022-09-17T18:54:09.248Z,8.07
2022-09-17T18:56:35.624Z,4.88
2022-09-17T18:59:07.108Z,6.35
2022-09-17T19:01:34.217Z,9.65
2022-09-17T19:04:00.264Z,5.57
2022-09-17T19:06:27.330Z,8.73
2022-09-17T19:08:55.076Z,11.15
2022-09-17T19:11:24.101Z,10.70
2022-09-17T19:13:50.068Z,10.63
2022-09-17T19:16:16.385Z,7.68
2022-09-17T19:18:42.937Z,9.73
2022-09-17T19:21:20.825Z,8.73
2022-09-17T19:23:49.475Z,13.60
2022-09-17T19:26:21.865Z,8.95
2022-09-17T19:28:51.955Z,15.55
2022-09-17T19:31:17.851Z,8.82
2022-09-17T19:33:44.012Z,14.80
2022-09-17T19:36:14.506Z,10.82
2022-09-17T19:38:40.780Z,9.45
2022-09-17T19:41:16.206Z,9.57
2022-09-17T19:43:42.734Z,8.27
2022-09-17T19:46:17.709Z,10.55
2022-09-17T19:48:54.375Z,7.85
2022-09-17T19:51:22.227Z,10.05
2022-09-17T19:53:48.750Z,10.57
2022-09-17T19:56:23.200Z,9.60
2022-09-17T19:58:49.235Z,11.10
2022-09-17T20:01:15.640Z,13.13
2022-09-17T20:03:45.126Z,7.65
2022-09-17T20:06:13.546Z,12.38
2022-09-17T20:08:55.296Z,13.43
2022-09-17T20:11:23.287Z,13.52
2022-09-17T20:13:49.580Z,11.00
2022-09-17T20:16:16.875Z,10.13
2022-09-17T20:18:45.545Z,8.82
2022-09-17T20:21:27.094Z,15.32
2022-09-17T20:23:53.827Z,13.25
2022-09-17T20:26:20.523Z,12.27
2022-09-17T20:28:48.199Z,9.73
2022-09-17T20:31:22.413Z,9.38
2022-09-17T20:33:54.437Z,12.98
2022-09-17T20:36:22.787Z,8.35
2022-09-17T20:41:37.446Z,11.68
2022-09-17T20:44:05.345Z,11.68
2022-09-17T20:46:31.282Z,13.77
2022-09-17T20:48:58.241Z,13.52
2022-09-17T20:51:26.740Z,12.45
2022-09-17T20:53:53.029Z,10.27
2022-09-17T20:56:24.550Z,12.68
2022-09-17T20:59:03.689Z,10.70
2022-09-17T21:01:33.668Z,12.18
2022-09-17T21:04:00.796Z,9.38
2022-09-17T21:06:29.171Z,10.82
2022-09-17T21:08:55.328Z,13.27
2022-09-17T21:11:23.666Z,9.80
2022-09-17T21:13:50.371Z,8.90
2022-09-17T21:16:17.262Z,11.40
2022-09-17T21:18:43.500Z,9.75
2022-09-17T21:21:11.554Z,7.03
2022-09-17T21:23:38.710Z,15.52
2022-09-17T21:26:12.915Z,11.95
2022-09-17T21:28:39.335Z,10.70
2022-09-17T21:31:09.966Z,8.15
2022-09-17T21:33:35.988Z,12.20
2022-09-17T21:36:06.113Z,14.93
2022-09-17T21:38:32.242Z,14.10
2022-09-17T21:41:00.404Z,9.68
2022-09-17T21:43:26.997Z,20.17
2022-09-17T21:46:12.730Z,8.93
2022-09-17T21:48:44.167Z,12.85
2022-09-17T21:51:15.121Z,6.97
2022-09-17T21:53:40.975Z,12.95
2022-09-17T21:56:10.606Z,9.23
2022-09-17T21:58:37.061Z,8.63
2022-09-17T22:01:16.982Z,10.90
2022-09-17T22:03:44.278Z,12.35
2022-09-17T22:06:16.112Z,9.32
2022-09-17T22:08:42.170Z,12.68
2022-09-17T22:11:14.745Z,11.32
2022-09-17T22:13:41.391Z,8.05
2022-09-17T22:16:09.470Z,13.85
2022-09-17T22:18:37.215Z,11.10
2022-09-17T22:21:18.067Z,10.57
2022-09-17T22:23:44.411Z,7.72
2022-09-17T22:26:10.800Z,6.22
2022-09-17T22:28:36.639Z,10.60
2022-09-17T22:31:05.719Z,7.50
2022-09-17T22:33:40.055Z,8.52
2022-09-17T22:36:08.920Z,6.55
2022-09-17T22:38:35.542Z,7.38
2022-09-17T22:41:31.222Z,6.90
2022-09-17T22:44:03.470Z,7.43
2022-09-17T22:46:31.476Z,8.63
2022-09-17T22:48:57.575Z,8.27
2022-09-17T22:51:25.216Z,7.80
2022-09-17T22:53:51.285Z,7.63
2022-09-17T22:56:18.816Z,5.28
2022-09-17T22:58:45.392Z,6.47
2022-09-17T23:01:14.958Z,6.57
2022-09-17T23:03:41.734Z,8.65
2022-09-17T23:06:10.244Z,6.88
2022-09-17T23:08:37.087Z,9.63
2022-09-17T23:11:04.618Z,11.88
2022-09-17T23:13:30.420Z,10.68
2022-09-17T23:16:03.761Z,8.60
2022-09-17T23:18:30.319Z,10.02
2022-09-17T23:21:01.057Z,7.18
2022-09-17T23:23:27.429Z,7.95
2022-09-17T23:25:54.461Z,9.20
2022-09-17T23:28:21.284Z,9.60
2022-09-17T23:30:47.288Z,6.30
2022-09-17T23:33:16.172Z,7.97
2022-09-17T23:35:44.932Z,9.18
2022-09-17T23:38:10.844Z,13.05
2022-09-17T23:40:36.791Z,14.98
2022-09-17T23:43:02.649Z,8.30
2022-09-17T23:45:28.471Z,9.57
2022-09-17T23:47:54.304Z,8.20
2022-09-17T23:50:20.057Z,12.73
2022-09-17T23:52:45.805Z,13.07
2022-09-17T23:55:11.591Z,13.90
2022-09-17T23:57:38.286Z,15.02
